createdAt,value
2019-03-04T00:01:18.469Z,9.93
2019-03-04T00:03:46.904Z,9.83
2019-03-04T00:06:15.310Z,9.77
2019-03-04T00:08:43.747Z,9.71
2019-03-04T00:11:12.159Z,9.72
2019-03-04T00:13:40.590Z,9.75
2019-03-04T00:16:08.998Z,9.70
2019-03-04T00:18:37.436Z,9.64
2019-03-04T00:21:05.849Z,9.62
2019-03-04T00:23:34.283Z,9.62
2019-03-04T00:26:02.699Z,9.61
2019-03-04T00:28:31.139Z,9.64
2019-03-04T00:30:59.592Z,9.69
2019-03-04T00:33:28.080Z,9.62
2019-03-04T00:35:56.495Z,9.59
2019-03-04T00:38:24.927Z,9.59
2019-03-04T00:40:53.345Z,9.58
2019-03-04T00:43:21.778Z,9.64
2019-03-04T00:45:50.195Z,9.68
2019-03-04T00:48:18.632Z,9.61
2019-03-04T00:50:47.032Z,9.58
2019-03-04T00:53:15.436Z,9.45
2019-03-04T00:55:43.879Z,9.40
2019-03-04T00:58:12.292Z,9.33
2019-03-04T01:00:40.794Z,9.20
2019-03-04T01:03:09.199Z,9.13
2019-03-04T01:05:37.638Z,9.08
2019-03-04T01:08:06.047Z,9.07
2019-03-04T01:10:34.482Z,9.07
2019-03-04T01:13:02.898Z,9.06
2019-03-04T01:15:31.335Z,9.14
2019-03-04T01:17:59.738Z,9.17
2019-03-04T01:20:28.172Z,9.27
2019-03-04T01:22:56.585Z,9.24
2019-03-04T01:25:25.024Z,9.15
2019-03-04T01:27:53.434Z,9.01
2019-03-04T01:30:23.607Z,8.97
2019-03-04T01:32:53.158Z,8.91
2019-03-04T01:35:21.587Z,8.81
2019-03-04T01:37:49.993Z,8.76
2019-03-04T01:40:24.622Z,8.74
2019-03-04T01:42:53.027Z,8.74
2019-03-04T01:45:21.465Z,8.65
2019-03-04T01:47:49.877Z,8.62
2019-03-04T01:50:19.853Z,8.51
2019-03-04T01:52:48.437Z,8.57
2019-03-04T01:55:18.606Z,8.58
2019-03-04T01:57:47.085Z,8.56
2019-03-04T02:00:23.868Z,8.60
2019-03-04T02:02:52.276Z,8.53
2019-03-04T02:05:20.934Z,8.54
2019-03-04T02:07:49.434Z,8.63
2019-03-04T02:10:19.190Z,8.72
2019-03-04T02:12:48.360Z,8.71
2019-03-04T02:15:20.842Z,8.82
2019-03-04T02:17:49.454Z,8.79
2019-03-04T02:20:18.598Z,8.87
2019-03-04T02:22:47.276Z,8.93
2019-03-04T02:25:17.730Z,8.99
2019-03-04T02:27:51.979Z,9.03
2019-03-04T02:30:22.938Z,9.03
2019-03-04T02:32:51.370Z,9.07
2019-03-04T02:35:19.920Z,9.16
2019-03-04T02:37:48.359Z,9.12
2019-03-04T02:40:16.772Z,9.14
2019-03-04T02:42:45.209Z,9.18
2019-03-04T02:45:18.530Z,9.20
2019-03-04T02:47:47.652Z,9.27
2019-03-04T02:50:16.501Z,9.30
2019-03-04T02:52:45.411Z,9.35
2019-03-04T02:55:15.862Z,9.41
2019-03-04T02:57:44.364Z,9.44
2019-03-04T03:00:19.606Z,9.41
2019-03-04T03:02:48.114Z,9.44
2019-03-04T03:05:16.594Z,9.41
2019-03-04T03:07:45.101Z,9.41
2019-03-04T03:10:14.555Z,9.58
2019-03-04T03:12:43.001Z,9.63
2019-03-04T03:15:14.089Z,9.53
2019-03-04T03:17:42.595Z,9.45
2019-03-04T03:20:13.269Z,9.42
2019-03-04T03:22:41.740Z,9.37
2019-03-04T03:25:12.365Z,9.30
2019-03-04T03:27:40.767Z,9.24
2019-03-04T03:30:18.469Z,9.18
2019-03-04T03:32:47.077Z,9.17
2019-03-04T03:35:15.549Z,9.20
2019-03-04T03:37:44.024Z,9.20
2019-03-04T03:40:21.848Z,9.18
2019-03-04T03:42:50.457Z,9.21
2019-03-04T03:45:19.008Z,9.21
2019-03-04T03:47:47.495Z,9.27
2019-03-04T03:50:18.868Z,9.37
2019-03-04T03:52:47.277Z,9.46
2019-03-04T03:55:16.726Z,9.49
2019-03-04T03:57:45.416Z,9.55
2019-03-04T04:00:26.334Z,9.54
2019-03-04T04:02:54.817Z,9.61
2019-03-04T04:05:23.327Z,9.64
2019-03-04T04:07:51.736Z,9.70
2019-03-04T04:10:21.109Z,9.72
2019-03-04T04:12:49.532Z,9.76
2019-03-04T04:15:19.703Z,9.79
2019-03-04T04:17:48.186Z,9.84
2019-03-04T04:20:16.727Z,9.87
2019-03-04T04:22:45.108Z,9.94
2019-03-04T04:25:13.784Z,9.96
2019-03-04T04:27:42.278Z,9.94
2019-03-04T04:30:16.711Z,9.98
2019-03-04T04:32:45.119Z,9.97
2019-03-04T04:35:13.557Z,9.98
2019-03-04T04:37:42.034Z,10.06
2019-03-04T04:40:12.791Z,10.06
2019-03-04T04:42:41.214Z,10.15
2019-03-04T04:45:10.491Z,10.13
2019-03-04T04:47:40.044Z,10.23
2019-03-04T04:50:30.821Z,10.23
2019-03-04T04:52:59.229Z,10.24
2019-03-04T04:55:27.675Z,10.27
2019-03-04T04:57:56.095Z,10.28
2019-03-04T05:00:24.598Z,10.29
2019-03-04T05:02:53.077Z,10.32
2019-03-04T05:05:21.487Z,10.32
2019-03-04T05:07:49.922Z,10.32
2019-03-04T05:10:20.552Z,10.30
2019-03-04T05:12:49.057Z,10.32
2019-03-04T05:15:17.704Z,10.29
2019-03-04T05:17:46.143Z,10.32
2019-03-04T05:20:23.515Z,10.31
2019-03-04T05:22:51.950Z,10.31
2019-03-04T05:25:20.359Z,10.27
2019-03-04T05:27:48.803Z,10.27
2019-03-04T05:30:21.324Z,10.31
2019-03-04T05:32:49.770Z,10.37
2019-03-04T05:35:18.259Z,10.35
2019-03-04T05:37:46.696Z,10.46
2019-03-04T05:40:19.274Z,10.31
2019-03-04T05:42:47.698Z,10.12
2019-03-04T05:45:19.433Z,9.96
2019-03-04T05:47:47.874Z,9.89
2019-03-04T05:50:21.294Z,9.86
2019-03-04T05:52:49.722Z,9.89
2019-03-04T05:55:18.132Z,9.89
2019-03-04T05:57:46.637Z,9.83
2019-03-04T06:00:24.508Z,9.79
2019-03-04T06:03:01.321Z,9.78
2019-03-04T06:05:29.728Z,9.80
2019-03-04T06:07:59.807Z,9.91
2019-03-04T06:10:28.217Z,9.90
2019-03-04T06:12:58.726Z,9.87
2019-03-04T06:15:26.797Z,9.86
2019-03-04T06:17:55.238Z,9.91
2019-03-04T06:20:23.722Z,10.01
2019-03-04T06:22:52.169Z,10.02
2019-03-04T06:25:26.085Z,10.00
2019-03-04T06:27:54.529Z,9.99
2019-03-04T06:30:25.555Z,10.07
2019-03-04T06:32:54.018Z,10.12
2019-03-04T06:35:22.470Z,10.18
2019-03-04T06:37:50.879Z,10.18
2019-03-04T06:40:20.457Z,10.15
2019-03-04T06:42:48.869Z,10.12
2019-03-04T06:45:20.963Z,10.08
2019-03-04T06:47:49.372Z,10.05
2019-03-04T06:50:46.053Z,10.03
2019-03-04T06:53:23.673Z,10.06
2019-03-04T06:56:19.691Z,10.11
2019-03-04T06:58:51.309Z,10.16
2019-03-04T07:01:22.904Z,10.17
2019-03-04T07:03:54.147Z,10.18
2019-03-04T07:06:22.564Z,10.19
2019-03-04T07:08:54.180Z,10.16
2019-03-04T07:11:22.589Z,10.16
2019-03-04T07:13:51.033Z,10.17
2019-03-04T07:16:19.446Z,10.16
2019-03-04T07:18:47.854Z,10.10
2019-03-04T07:21:16.287Z,10.08
2019-03-04T07:23:44.707Z,10.08
2019-03-04T07:26:13.145Z,10.07
2019-03-04T07:28:41.566Z,10.08
2019-03-04T07:31:09.997Z,10.10
2019-03-04T07:33:38.398Z,10.11
2019-03-04T07:36:08.127Z,10.14
2019-03-04T07:38:45.705Z,10.17
2019-03-04T07:41:14.211Z,10.23
2019-03-04T07:43:42.624Z,10.28
2019-03-04T07:46:11.066Z,10.31
2019-03-04T07:48:39.480Z,10.29
2019-03-04T07:51:18.383Z,10.27
2019-03-04T07:53:46.985Z,10.24
2019-03-04T07:56:15.488Z,10.22
2019-03-04T07:58:43.902Z,10.25
2019-03-04T08:01:12.337Z,10.24
2019-03-04T08:03:40.812Z,10.27
2019-03-04T08:06:09.318Z,10.29
2019-03-04T08:08:38.664Z,10.26
2019-03-04T08:11:26.754Z,10.20
2019-03-04T08:14:07.113Z,10.23
2019-03-04T08:16:36.304Z,10.29
2019-03-04T08:19:04.904Z,10.35
2019-03-04T08:21:33.356Z,10.39
2019-03-04T08:24:01.772Z,10.44
2019-03-04T08:26:30.205Z,10.50
2019-03-04T08:28:58.823Z,10.53
2019-03-04T08:31:27.251Z,10.57
2019-03-04T08:33:55.668Z,10.62
2019-03-04T08:36:24.117Z,10.67
2019-03-04T08:38:52.530Z,10.72
2019-03-04T08:41:21.042Z,10.74
2019-03-04T08:43:49.459Z,10.82
2019-03-04T08:46:17.891Z,10.99
2019-03-04T08:48:46.304Z,11.07
2019-03-04T08:51:14.752Z,11.12
2019-03-04T08:53:43.167Z,11.16
2019-03-04T08:56:12.425Z,11.24
2019-03-04T08:58:41.005Z,11.27
2019-03-04T09:01:09.503Z,11.49
2019-03-04T09:03:37.926Z,11.80
2019-03-04T09:06:06.359Z,12.12
2019-03-04T09:08:34.766Z,12.52
2019-03-04T09:11:03.204Z,12.91
2019-03-04T09:13:31.616Z,13.17
2019-03-04T09:16:00.055Z,13.29
2019-03-04T09:18:28.546Z,13.41
2019-03-04T09:20:56.981Z,13.37
2019-03-04T09:23:25.388Z,13.17
2019-03-04T09:26:09.118Z,12.93
2019-03-04T09:28:37.530Z,12.74
2019-03-04T09:31:05.959Z,12.51
2019-03-04T09:33:34.441Z,12.36
2019-03-04T09:36:03.017Z,12.11
2019-03-04T09:38:31.421Z,10.32
2019-03-04T09:40:59.862Z,8.69
2019-03-04T09:43:28.277Z,8.25
2019-03-04T09:45:56.719Z,8.14
2019-03-04T09:48:25.193Z,8.02
2019-03-04T09:50:53.667Z,8.03
2019-03-04T09:53:22.093Z,8.06
2019-03-04T09:55:50.499Z,8.14
2019-03-04T09:58:18.929Z,8.28
2019-03-04T10:01:02.569Z,8.45
2019-03-04T10:03:43.015Z,8.60
2019-03-04T10:06:26.659Z,8.79
2019-03-04T10:09:10.271Z,9.01
2019-03-04T10:11:56.671Z,9.16
2019-03-04T10:14:40.007Z,9.32
2019-03-04T10:17:29.692Z,9.32
2019-03-04T10:23:53.028Z,9.03
2019-03-04T10:26:33.425Z,8.89
2019-03-04T10:29:35.117Z,8.84
2019-03-04T10:32:06.749Z,8.76
2019-03-04T10:34:59.374Z,8.60
2019-03-04T10:37:46.097Z,8.58
2019-03-04T10:40:37.150Z,8.57
2019-03-04T10:43:17.725Z,8.58
2019-03-04T10:45:49.315Z,8.80
2019-03-04T10:48:17.754Z,9.02
2019-03-04T10:50:46.172Z,9.04
2019-03-04T10:53:14.672Z,8.99
2019-03-04T10:55:43.154Z,8.99
2019-03-04T10:58:11.579Z,9.00
2019-03-04T11:00:40.525Z,9.00
2019-03-04T11:03:08.964Z,9.01
2019-03-04T11:05:37.368Z,9.07
2019-03-04T11:08:05.876Z,9.16
2019-03-04T11:10:34.633Z,9.42
2019-03-04T11:13:03.149Z,9.63
2019-03-04T11:15:32.124Z,10.18
2019-03-04T11:18:00.534Z,10.61
2019-03-04T11:20:28.977Z,10.99
2019-03-04T11:22:57.383Z,11.17
2019-03-04T11:25:25.887Z,10.80
2019-03-04T11:27:54.308Z,10.57
2019-03-04T11:30:27.453Z,10.60
2019-03-04T11:32:55.861Z,10.72
2019-03-04T11:35:24.368Z,10.88
2019-03-04T11:37:52.778Z,10.85
2019-03-04T11:40:28.605Z,10.67
2019-03-04T11:42:57.160Z,10.45
2019-03-04T11:45:25.666Z,10.31
2019-03-04T11:47:54.072Z,10.34
2019-03-04T11:50:22.581Z,10.30
2019-03-04T11:52:51.163Z,10.35
2019-03-04T11:55:25.302Z,10.34
2019-03-04T11:57:53.707Z,10.35
2019-03-04T12:00:25.938Z,10.44
2019-03-04T12:02:54.341Z,10.43
2019-03-04T12:05:22.788Z,10.47
2019-03-04T12:07:51.187Z,10.57
2019-03-04T12:10:19.638Z,10.62
2019-03-04T12:12:48.112Z,10.80
2019-03-04T12:15:20.719Z,10.88
2019-03-04T12:17:49.131Z,10.90
2019-03-04T12:20:17.703Z,10.89
2019-03-04T12:22:46.112Z,11.08
2019-03-04T12:25:17.743Z,11.37
2019-03-04T12:27:46.149Z,11.48
2019-03-04T12:30:27.618Z,11.51
2019-03-04T12:32:56.034Z,11.64
2019-03-04T12:35:24.550Z,11.69
2019-03-04T12:37:53.025Z,11.57
2019-03-04T12:40:22.908Z,11.20
2019-03-04T12:42:51.386Z,11.03
2019-03-04T12:45:22.032Z,11.00
2019-03-04T12:47:50.509Z,11.00
2019-03-04T12:50:26.589Z,10.96
2019-03-04T12:52:55.837Z,10.80
2019-03-04T12:55:24.345Z,10.59
2019-03-04T12:57:52.756Z,10.33
2019-03-04T13:00:29.671Z,10.01
2019-03-04T13:02:58.321Z,9.74
2019-03-04T13:05:26.834Z,9.36
2019-03-04T13:07:55.306Z,9.22
2019-03-04T13:10:23.764Z,8.14
2019-03-04T13:12:52.152Z,6.99
2019-03-04T13:15:23.491Z,6.41
2019-03-04T13:17:51.937Z,6.19
2019-03-04T13:20:25.764Z,6.16
2019-03-04T13:22:54.196Z,6.16
2019-03-04T13:25:22.674Z,6.32
2019-03-04T13:27:51.175Z,6.32
2019-03-04T13:30:24.342Z,6.95
2019-03-04T13:32:52.839Z,6.95
2019-03-04T13:35:35.384Z,7.24
2019-03-04T13:38:03.888Z,7.43
2019-03-04T13:40:32.704Z,7.61
2019-03-04T13:43:01.200Z,7.67
2019-03-04T13:45:29.875Z,7.64
2019-03-04T13:47:58.305Z,7.56
2019-03-04T13:50:35.274Z,7.46
2019-03-04T13:53:03.705Z,7.36
2019-03-04T13:55:32.191Z,7.33
2019-03-04T13:58:00.619Z,7.35
2019-03-04T14:00:40.720Z,7.44
2019-03-04T14:03:09.226Z,7.62
2019-03-04T14:05:37.700Z,7.67
2019-03-04T14:08:06.197Z,7.76
2019-03-04T14:10:36.947Z,7.82
2019-03-04T14:13:05.442Z,7.89
2019-03-04T14:15:40.705Z,8.09
2019-03-04T14:18:09.207Z,8.02
2019-03-04T14:20:37.679Z,8.21
2019-03-04T14:23:06.349Z,8.28
2019-03-04T14:25:34.822Z,8.41
2019-03-04T14:28:03.333Z,8.38
2019-03-04T14:30:32.242Z,8.31
2019-03-04T14:33:00.672Z,8.15
2019-03-04T14:35:29.157Z,8.03
2019-03-04T14:37:57.604Z,7.95
2019-03-04T14:40:26.008Z,7.84
2019-03-04T14:42:55.288Z,7.84
2019-03-04T14:45:25.736Z,7.81
2019-03-04T14:47:54.332Z,7.81
2019-03-04T14:50:22.965Z,7.76
2019-03-04T14:52:51.403Z,7.66
2019-03-04T14:55:23.949Z,7.66
2019-03-04T14:57:52.377Z,7.69
2019-03-04T15:00:24.367Z,7.66
2019-03-04T15:02:52.791Z,7.53
2019-03-04T15:05:21.269Z,7.29
2019-03-04T15:07:49.790Z,7.19
2019-03-04T15:10:18.195Z,7.36
2019-03-04T15:12:46.604Z,7.41
2019-03-04T15:15:30.053Z,7.39
2019-03-04T15:17:58.573Z,7.38
2019-03-04T15:20:28.322Z,7.34
2019-03-04T15:22:56.811Z,7.38
2019-03-04T15:25:30.897Z,7.54
2019-03-04T15:28:16.816Z,7.59
2019-03-04T15:30:47.477Z,7.62
2019-03-04T15:33:18.374Z,7.57
2019-03-04T15:35:46.037Z,7.60
2019-03-04T15:38:14.467Z,7.60
2019-03-04T15:40:42.931Z,7.57
2019-03-04T15:43:11.332Z,7.55
2019-03-04T15:45:41.569Z,7.51
2019-03-04T15:48:09.981Z,7.48
2019-03-04T15:50:38.482Z,7.40
2019-03-04T15:53:06.956Z,7.25
2019-03-04T15:55:35.464Z,7.21
2019-03-04T15:58:04.005Z,7.19
2019-03-04T16:00:32.573Z,7.15
2019-03-04T16:03:00.979Z,7.08
2019-03-04T16:05:29.499Z,7.04
2019-03-04T16:08:07.040Z,7.05
2019-03-04T16:10:31.945Z,7.13
2019-03-04T16:13:00.377Z,7.13
2019-03-04T16:15:28.874Z,7.08
2019-03-04T16:17:57.415Z,7.11
2019-03-04T16:20:25.915Z,7.14
2019-03-04T16:22:55.753Z,7.14
2019-03-04T16:25:24.260Z,7.15
2019-03-04T16:28:01.760Z,7.13
2019-03-04T16:30:30.291Z,7.16
2019-03-04T16:32:58.690Z,7.18
2019-03-04T16:35:27.195Z,7.09
2019-03-04T16:37:55.606Z,7.08
2019-03-04T16:40:24.872Z,7.06
2019-03-04T16:42:53.346Z,7.03
2019-03-04T16:45:22.623Z,7.05
2019-03-04T16:47:51.459Z,7.00
2019-03-04T16:50:25.680Z,6.95
2019-03-04T16:52:57.387Z,7.05
2019-03-04T16:55:25.900Z,7.05
2019-03-04T16:57:54.752Z,7.02
2019-03-04T17:00:23.307Z,7.03
2019-03-04T17:02:51.787Z,6.97
2019-03-04T17:05:21.093Z,6.91
2019-03-04T17:07:50.924Z,6.92
2019-03-04T17:10:21.608Z,6.98
2019-03-04T17:12:50.016Z,7.05
2019-03-04T17:15:21.365Z,7.19
2019-03-04T17:17:50.146Z,7.27
2019-03-04T17:20:19.019Z,7.23
2019-03-04T17:22:47.602Z,7.24
2019-03-04T17:25:18.180Z,7.28
2019-03-04T17:27:46.658Z,7.25
2019-03-04T17:30:22.935Z,7.33
2019-03-04T17:32:51.414Z,7.31
2019-03-04T17:35:22.249Z,7.30
2019-03-04T17:37:50.780Z,7.22
2019-03-04T17:40:27.424Z,7.12
2019-03-04T17:42:55.901Z,7.16
2019-03-04T17:45:25.572Z,7.25
2019-03-04T17:47:54.052Z,7.15
2019-03-04T17:50:34.072Z,7.19
2019-03-04T17:53:04.322Z,7.18
2019-03-04T17:55:32.835Z,7.18
2019-03-04T17:58:01.242Z,7.15
2019-03-04T18:00:30.011Z,7.15
2019-03-04T18:02:58.446Z,7.15
2019-03-04T18:05:26.920Z,7.04
2019-03-04T18:07:55.354Z,7.05
2019-03-04T18:10:23.934Z,7.09
2019-03-04T18:12:54.198Z,7.05
2019-03-04T18:15:24.915Z,6.93
2019-03-04T18:17:53.351Z,6.89
2019-03-04T18:20:21.757Z,6.91
2019-03-04T18:22:50.195Z,6.93
2019-03-04T18:25:30.938Z,6.93
2019-03-04T18:28:05.483Z,6.92
2019-03-04T18:30:43.114Z,6.82
2019-03-04T18:33:32.528Z,6.90
2019-03-04T18:36:15.690Z,6.88
2019-03-04T18:39:04.792Z,6.84
2019-03-04T18:41:50.771Z,6.71
2019-03-04T18:44:31.130Z,6.71
2019-03-04T18:47:26.810Z,6.71
2019-03-04T18:49:55.207Z,6.69
2019-03-04T18:52:23.717Z,6.66
2019-03-04T18:54:52.133Z,6.71
2019-03-04T18:57:20.569Z,6.71
2019-03-04T18:59:48.976Z,6.63
2019-03-04T19:02:17.406Z,6.62
2019-03-04T19:04:45.816Z,6.68
2019-03-04T19:07:14.252Z,6.68
2019-03-04T19:09:42.725Z,6.69
2019-03-04T19:12:11.153Z,6.69
2019-03-04T19:14:39.558Z,6.70
2019-03-04T19:17:08.063Z,6.77
2019-03-04T19:19:36.464Z,6.77
2019-03-04T19:22:04.940Z,6.78
2019-03-04T19:24:33.434Z,6.83
2019-03-04T19:27:01.834Z,6.80
2019-03-04T19:29:30.274Z,6.81
2019-03-04T19:31:58.687Z,6.72
2019-03-04T19:34:27.123Z,6.80
2019-03-04T19:36:55.600Z,6.83
2019-03-04T19:39:24.032Z,6.68
2019-03-04T19:41:52.444Z,6.74
2019-03-04T19:44:20.879Z,6.74
2019-03-04T19:46:49.350Z,6.71
2019-03-04T19:49:17.775Z,6.74
2019-03-04T19:51:46.185Z,6.77
2019-03-04T19:54:14.629Z,6.77
2019-03-04T19:56:43.038Z,6.80
2019-03-04T19:59:11.469Z,6.80
2019-03-04T20:01:39.936Z,6.80
2019-03-04T20:04:08.436Z,6.79
2019-03-04T20:06:37.513Z,6.84
2019-03-04T20:09:06.682Z,6.84
2019-03-04T20:11:35.161Z,6.83
2019-03-04T20:14:03.603Z,6.83
2019-03-04T20:16:32.017Z,6.83
2019-03-04T20:19:00.443Z,6.90
2019-03-04T20:21:28.853Z,7.00
2019-03-04T20:23:57.255Z,7.00
2019-03-04T20:26:25.864Z,7.04
2019-03-04T20:28:54.278Z,7.06
2019-03-04T20:31:22.712Z,7.06
2019-03-04T20:33:51.195Z,7.14
2019-03-04T20:36:19.633Z,7.15
2019-03-04T20:38:48.205Z,7.15
2019-03-04T20:41:16.661Z,7.01
2019-03-04T20:43:45.065Z,6.99
2019-03-04T20:46:13.495Z,6.94
2019-03-04T20:48:41.969Z,6.95
2019-03-04T20:51:10.437Z,7.01
2019-03-04T20:53:38.818Z,7.01
2019-03-04T20:56:07.245Z,7.05
2019-03-04T20:58:35.715Z,6.99
2019-03-04T21:01:04.497Z,6.95
2019-03-04T21:03:35.073Z,6.95
2019-03-04T21:06:03.266Z,6.87
2019-03-04T21:08:31.746Z,6.97
2019-03-04T21:11:00.249Z,6.97
2019-03-04T21:13:35.192Z,7.04
2019-03-04T21:15:58.950Z,7.04
2019-03-04T21:18:27.722Z,7.04
2019-03-04T21:20:57.951Z,7.03
2019-03-04T21:23:26.455Z,7.03
2019-03-04T21:26:00.438Z,7.06
2019-03-04T21:28:37.750Z,7.06
2019-03-04T21:31:11.789Z,7.14
2019-03-04T21:33:49.330Z,7.21
2019-03-04T21:36:41.905Z,7.31
2019-03-04T21:39:13.160Z,7.29
2019-03-04T21:41:50.871Z,7.26
2019-03-04T21:44:31.570Z,7.26
2019-03-04T21:47:20.668Z,7.21
2019-03-04T21:49:51.009Z,7.23
2019-03-04T21:52:37.704Z,7.27
2019-03-04T21:55:14.900Z,7.27
2019-03-04T21:57:46.375Z,7.29
2019-03-04T22:00:21.806Z,7.29
2019-03-04T22:02:56.402Z,7.27
2019-03-04T22:05:24.882Z,7.22
2019-03-04T22:07:53.318Z,7.23
2019-03-04T22:10:21.792Z,7.30
2019-03-04T22:12:50.365Z,7.27
2019-03-04T22:15:18.850Z,7.21
2019-03-04T22:17:47.246Z,7.21
2019-03-04T22:20:16.343Z,7.21
2019-03-04T22:22:44.893Z,7.29
2019-03-04T22:25:14.536Z,7.33
2019-03-04T22:27:42.940Z,7.35
2019-03-04T22:30:19.204Z,7.33
2019-03-04T22:32:47.715Z,7.36
2019-03-04T22:35:17.653Z,7.36
2019-03-04T22:37:46.134Z,7.40
2019-03-04T22:40:28.468Z,7.35
2019-03-04T22:42:56.853Z,7.27
2019-03-04T22:45:25.305Z,7.19
2019-03-04T22:47:53.687Z,7.26
2019-03-04T22:50:22.877Z,7.21
2019-03-04T22:52:51.351Z,7.20
2019-03-04T22:55:31.441Z,7.20
2019-03-04T22:57:59.840Z,7.11
2019-03-04T23:00:53.750Z,7.07
2019-03-04T23:03:31.194Z,7.10
2019-03-04T23:06:11.858Z,7.16
2019-03-04T23:08:40.628Z,7.16
2019-03-04T23:11:09.070Z,7.17
2019-03-04T23:13:58.549Z,7.13
2019-03-04T23:16:31.815Z,7.11
2019-03-04T23:19:00.220Z,7.15
2019-03-04T23:21:28.653Z,7.08
2019-03-04T23:23:57.129Z,7.02
2019-03-04T23:26:25.582Z,7.03
2019-03-04T23:28:53.980Z,7.05
2019-03-04T23:31:22.409Z,7.05
2019-03-04T23:33:50.812Z,7.08
2019-03-04T23:36:19.242Z,6.92
2019-03-04T23:38:47.650Z,6.91
2019-03-04T23:41:16.083Z,6.96
2019-03-04T23:43:44.567Z,6.89
2019-03-04T23:46:12.997Z,6.81
2019-03-04T23:48:41.482Z,6.86
2019-03-04T23:51:09.919Z,6.79
2019-03-04T23:53:38.328Z,6.86
2019-03-04T23:56:06.759Z,6.90
2019-03-04T23:58:35.171Z,6.96
